createdAt,value
2018-07-09T00:02:18.848Z,6.10
2018-07-09T00:04:47.064Z,5.97
2018-07-09T00:07:15.333Z,6.00
2018-07-09T00:09:43.628Z,6.20
2018-07-09T00:12:11.860Z,7.80
2018-07-09T00:14:40.091Z,6.30
2018-07-09T00:17:08.332Z,6.47
2018-07-09T00:19:36.627Z,5.80
2018-07-09T00:22:04.871Z,6.50
2018-07-09T00:24:33.068Z,6.10
2018-07-09T00:27:05.748Z,7.70
2018-07-09T00:29:34.019Z,7.08
2018-07-09T00:32:02.305Z,7.40
2018-07-09T00:34:30.571Z,6.95
2018-07-09T00:36:58.845Z,6.97
2018-07-09T00:39:27.127Z,6.90
2018-07-09T00:42:00.527Z,7.42
2018-07-09T00:44:28.941Z,6.80
2018-07-09T00:46:57.165Z,7.90
2018-07-09T00:49:25.432Z,7.57
2018-07-09T00:51:53.645Z,7.97
2018-07-09T00:54:21.917Z,8.03
2018-07-09T00:56:50.300Z,8.30
2018-07-09T00:59:18.536Z,8.60
2018-07-09T01:01:46.795Z,8.03
2018-07-09T01:04:15.041Z,7.60
2018-07-09T01:06:45.101Z,7.90
2018-07-09T01:09:13.347Z,7.73
2018-07-09T01:11:43.900Z,7.23
2018-07-09T01:14:12.338Z,8.13
2018-07-09T01:16:41.606Z,7.40
2018-07-09T01:19:09.928Z,6.80
2018-07-09T01:21:38.177Z,8.97
2018-07-09T01:24:06.405Z,7.70
2018-07-09T01:26:34.654Z,8.17
2018-07-09T01:29:05.876Z,7.87
2018-07-09T01:31:34.100Z,8.30
2018-07-09T01:34:02.347Z,9.55
2018-07-09T01:36:31.503Z,9.43
2018-07-09T01:38:59.768Z,8.70
2018-07-09T01:41:28.052Z,10.10
2018-07-09T01:44:00.553Z,10.27
2018-07-09T01:46:32.029Z,8.63
2018-07-09T01:49:00.226Z,8.80
2018-07-09T01:51:28.444Z,9.80
2018-07-09T01:53:56.912Z,9.00
2018-07-09T01:56:25.176Z,8.97
2018-07-09T01:58:57.276Z,9.25
2018-07-09T02:01:25.604Z,8.77
2018-07-09T02:03:53.857Z,7.90
2018-07-09T02:06:22.435Z,10.60
2018-07-09T02:08:50.640Z,8.08
2018-07-09T02:11:18.892Z,8.70
2018-07-09T02:13:50.213Z,9.03
2018-07-09T02:16:18.489Z,8.48
2018-07-09T02:18:47.370Z,9.35
2018-07-09T02:21:15.612Z,8.90
2018-07-09T02:23:44.828Z,9.20
2018-07-09T02:26:13.554Z,8.60
2018-07-09T02:28:45.900Z,9.04
2018-07-09T02:31:14.168Z,8.90
2018-07-09T02:33:42.800Z,9.37
2018-07-09T02:36:11.132Z,9.77
2018-07-09T02:38:39.414Z,9.37
2018-07-09T02:41:07.430Z,10.15
2018-07-09T02:43:35.706Z,8.97
2018-07-09T02:46:08.589Z,10.15
2018-07-09T02:48:36.808Z,10.15
2018-07-09T02:51:05.104Z,10.03
2018-07-09T02:53:33.313Z,10.37
2018-07-09T02:56:01.549Z,11.00
2018-07-09T02:58:29.809Z,10.50
2018-07-09T03:00:58.198Z,9.70
2018-07-09T03:03:26.304Z,10.37
2018-07-09T03:05:54.535Z,10.30
2018-07-09T03:08:22.757Z,12.40
2018-07-09T03:10:51.032Z,10.00
2018-07-09T03:13:19.273Z,10.40
2018-07-09T03:15:47.500Z,11.33
2018-07-09T03:18:15.893Z,11.80
2018-07-09T03:20:44.097Z,11.25
2018-07-09T03:23:12.418Z,10.10
2018-07-09T03:25:40.682Z,10.13
2018-07-09T03:28:08.835Z,10.48
2018-07-09T03:30:40.140Z,10.53
2018-07-09T03:33:08.343Z,11.10
2018-07-09T03:35:36.608Z,9.45
2018-07-09T03:38:05.301Z,9.70
2018-07-09T03:40:33.526Z,9.90
2018-07-09T03:43:01.757Z,9.70
2018-07-09T03:45:29.971Z,9.70
2018-07-09T03:47:58.196Z,10.75
2018-07-09T03:50:26.404Z,11.27
2018-07-09T03:52:54.629Z,9.80
2018-07-09T03:55:22.897Z,10.33
2018-07-09T03:57:51.123Z,9.80
2018-07-09T04:00:31.364Z,10.73
2018-07-09T04:02:59.661Z,10.97
2018-07-09T04:05:27.908Z,11.70
2018-07-09T04:07:56.157Z,11.22
2018-07-09T04:10:24.392Z,10.70
2018-07-09T04:12:52.637Z,10.40
2018-07-09T04:15:21.045Z,12.35
2018-07-09T04:17:49.517Z,10.57
2018-07-09T04:20:17.780Z,10.20
2018-07-09T04:22:46.018Z,10.00
2018-07-09T04:25:14.258Z,9.00
2018-07-09T04:27:42.497Z,9.50
2018-07-09T04:30:11.742Z,9.43
2018-07-09T04:32:47.165Z,9.65
2018-07-09T04:35:15.396Z,8.80
2018-07-09T04:37:43.694Z,8.58
2018-07-09T04:40:12.630Z,8.73
2018-07-09T04:42:40.963Z,9.30
2018-07-09T04:45:09.216Z,9.70
2018-07-09T04:47:37.617Z,8.13
2018-07-09T04:50:06.371Z,8.33
2018-07-09T04:52:34.611Z,8.87
2018-07-09T04:55:03.040Z,9.50
2018-07-09T04:57:31.247Z,8.93
2018-07-09T04:59:59.553Z,8.88
2018-07-09T05:02:30.746Z,9.83
2018-07-09T05:05:00.100Z,8.53
2018-07-09T05:07:28.570Z,8.60
2018-07-09T05:09:57.527Z,9.22
2018-07-09T05:12:26.009Z,9.07
2018-07-09T05:14:54.249Z,8.60
2018-07-09T05:17:22.568Z,8.00
2018-07-09T05:19:50.898Z,8.10
2018-07-09T05:22:19.117Z,8.67
2018-07-09T05:24:47.396Z,8.45
2018-07-09T05:27:15.624Z,7.27
2018-07-09T05:29:43.860Z,8.00
2018-07-09T05:32:15.840Z,8.77
2018-07-09T05:34:44.081Z,8.17
2018-07-09T05:37:12.441Z,8.48
2018-07-09T05:39:41.228Z,8.93
2018-07-09T05:42:09.508Z,8.13
2018-07-09T05:44:38.255Z,8.25
2018-07-09T05:56:47.372Z,9.43
2018-07-09T05:59:15.618Z,8.27
2018-07-09T06:01:44.796Z,8.10
2018-07-09T06:04:13.026Z,9.07
2018-07-09T06:06:41.285Z,8.48
2018-07-09T06:09:10.120Z,8.10
2018-07-09T06:11:38.432Z,7.97
2018-07-09T06:14:06.627Z,7.85
2018-07-09T06:16:34.908Z,7.80
2018-07-09T06:19:04.115Z,8.40
2018-07-09T06:21:32.384Z,7.70
2018-07-09T06:24:01.110Z,7.60
2018-07-09T06:26:29.385Z,7.63
2018-07-09T06:28:57.763Z,8.83
2018-07-09T06:31:26.046Z,7.80
2018-07-09T06:33:58.047Z,7.17
2018-07-09T06:36:26.280Z,8.47
2018-07-09T06:38:54.538Z,8.70
2018-07-09T06:41:22.832Z,9.03
2018-07-09T06:43:51.090Z,8.80
2018-07-09T06:46:19.342Z,8.73
2018-07-09T06:48:47.583Z,8.33
2018-07-09T06:51:15.943Z,7.57
2018-07-09T06:53:44.173Z,8.27
2018-07-09T06:56:12.433Z,8.40
2018-07-09T06:58:40.665Z,7.57
2018-07-09T07:01:08.893Z,8.03
2018-07-09T07:03:41.194Z,7.30
2018-07-09T07:06:12.788Z,8.10
2018-07-09T07:08:41.439Z,8.57
2018-07-09T07:11:09.737Z,8.50
2018-07-09T07:13:37.989Z,8.80
2018-07-09T07:16:06.230Z,8.65
2018-07-09T07:18:37.764Z,8.77
2018-07-09T07:21:06.334Z,9.57
2018-07-09T07:23:34.476Z,8.93
2018-07-09T07:26:02.756Z,8.50
2018-07-09T07:28:31.149Z,9.00
2018-07-09T07:30:59.372Z,8.80
2018-07-09T07:33:27.659Z,8.70
2018-07-09T07:35:55.907Z,8.00
2018-07-09T07:38:24.370Z,8.15
2018-07-09T07:40:53.556Z,7.90
2018-07-09T07:43:21.788Z,8.07
2018-07-09T07:45:50.028Z,8.28
2018-07-09T07:48:18.615Z,7.97
2018-07-09T07:50:50.581Z,8.17
2018-07-09T07:53:19.051Z,7.40
2018-07-09T07:55:47.339Z,8.77
2018-07-09T07:58:15.570Z,7.70
2018-07-09T08:00:43.809Z,7.93
2018-07-09T08:03:12.106Z,7.10
2018-07-09T08:05:48.317Z,6.70
2018-07-09T08:08:16.620Z,7.80
2018-07-09T08:10:44.640Z,8.00
2018-07-09T08:13:27.988Z,8.50
2018-07-09T08:15:41.260Z,7.40
2018-07-09T08:18:09.518Z,7.30
2018-07-09T08:20:42.195Z,6.73
2018-07-09T08:23:10.949Z,6.97
2018-07-09T08:25:40.029Z,7.92
2018-07-09T08:28:08.207Z,8.00
2018-07-09T08:30:36.395Z,6.60
2018-07-09T08:33:04.741Z,6.58
2018-07-09T08:35:40.563Z,7.10
2018-07-09T08:38:08.834Z,7.10
2018-07-09T08:40:36.876Z,7.80
2018-07-09T08:43:05.403Z,7.75
2018-07-09T08:45:33.641Z,6.75
2018-07-09T08:48:01.995Z,6.97
2018-07-09T08:50:33.213Z,6.43
2018-07-09T08:53:01.548Z,6.90
2018-07-09T08:55:30.540Z,6.85
2018-07-09T08:57:59.169Z,6.20
2018-07-09T09:00:27.810Z,7.12
2018-07-09T09:02:56.054Z,6.50
2018-07-09T09:05:24.273Z,6.60
2018-07-09T09:07:52.519Z,5.50
2018-07-09T09:10:20.990Z,6.73
2018-07-09T09:12:49.212Z,5.67
2018-07-09T09:15:17.443Z,5.45
2018-07-09T09:17:45.676Z,6.53
2018-07-09T09:20:14.565Z,5.53
2018-07-09T09:22:42.790Z,6.70
2018-07-09T09:25:11.122Z,6.27
2018-07-09T09:27:41.123Z,6.62
2018-07-09T09:30:09.514Z,5.65
2018-07-09T09:32:37.777Z,5.90
2018-07-09T09:35:05.991Z,6.00
2018-07-09T09:37:34.675Z,6.45
2018-07-09T09:40:02.918Z,7.10
2018-07-09T09:42:31.329Z,6.10
2018-07-09T09:44:59.599Z,5.77
2018-07-09T09:47:27.844Z,6.40
2018-07-09T09:49:56.076Z,5.73
2018-07-09T09:52:24.299Z,5.90
2018-07-09T09:54:52.590Z,6.40
2018-07-09T09:57:21.001Z,6.40
2018-07-09T09:59:49.312Z,5.30
2018-07-09T10:02:17.569Z,6.50
2018-07-09T10:04:46.273Z,6.57
2018-07-09T10:07:15.044Z,7.47
2018-07-09T10:09:43.312Z,5.67
2018-07-09T10:12:11.545Z,6.27
2018-07-09T10:14:39.821Z,6.67
2018-07-09T10:17:08.284Z,7.70
2018-07-09T10:19:36.533Z,5.60
2018-07-09T10:22:04.856Z,7.27
2018-07-09T10:24:33.089Z,5.57
2018-07-09T10:27:01.386Z,4.93
2018-07-09T10:29:29.671Z,6.60
2018-07-09T10:31:58.009Z,5.67
2018-07-09T10:34:26.383Z,5.30
2018-07-09T10:37:02.644Z,4.47
2018-07-09T10:39:30.928Z,4.53
2018-07-09T10:41:59.196Z,4.40
2018-07-09T10:44:28.145Z,4.57
2018-07-09T10:46:56.438Z,4.50
2018-07-09T10:49:24.686Z,4.83
2018-07-09T10:51:53.999Z,5.08
2018-07-09T10:54:22.240Z,4.50
2018-07-09T10:56:50.516Z,5.67
2018-07-09T10:59:18.863Z,4.57
2018-07-09T11:01:47.150Z,5.17
2018-07-09T11:04:15.371Z,4.63
2018-07-09T11:06:43.612Z,4.60
2018-07-09T11:09:15.281Z,4.90
2018-07-09T11:11:43.528Z,4.45
2018-07-09T11:14:11.767Z,4.45
2018-07-09T11:16:40.059Z,5.03
2018-07-09T11:19:08.274Z,5.90
2018-07-09T11:21:36.537Z,4.50
2018-07-09T11:24:04.753Z,5.20
2018-07-09T11:26:33.013Z,4.70
2018-07-09T11:29:01.221Z,5.53
2018-07-09T11:31:29.432Z,5.47
2018-07-09T11:33:57.837Z,5.00
2018-07-09T11:36:26.064Z,5.57
2018-07-09T11:38:54.279Z,5.20
2018-07-09T11:41:22.525Z,5.27
2018-07-09T11:43:50.776Z,5.15
2018-07-09T11:46:19.016Z,5.37
2018-07-09T11:48:47.270Z,5.17
2018-07-09T11:51:15.611Z,6.70
2018-07-09T11:53:43.823Z,5.70
2018-07-09T11:56:15.492Z,5.60
2018-07-09T11:58:43.888Z,5.33
2018-07-09T12:01:12.057Z,6.03
2018-07-09T12:03:40.342Z,5.87
2018-07-09T12:06:08.701Z,5.57
2018-07-09T12:08:36.945Z,4.90
2018-07-09T12:11:05.509Z,4.70
2018-07-09T12:13:33.801Z,4.57
2018-07-09T12:16:02.077Z,5.60
2018-07-09T12:18:30.634Z,5.13
2018-07-09T12:20:58.910Z,5.73
2018-07-09T12:23:27.351Z,5.87
2018-07-09T12:25:55.622Z,5.75
2018-07-09T12:28:23.902Z,5.80
2018-07-09T12:30:52.221Z,6.03
2018-07-09T12:33:21.006Z,5.80
2018-07-09T12:35:49.241Z,6.25
2018-07-09T12:38:17.505Z,5.00
2018-07-09T12:40:46.135Z,4.97
2018-07-09T12:43:14.423Z,5.00
2018-07-09T12:45:43.047Z,4.10
2018-07-09T12:48:11.247Z,6.30
2018-07-09T12:50:40.405Z,4.70
2018-07-09T12:53:08.768Z,5.53
2018-07-09T12:55:41.059Z,5.20
2018-07-09T12:58:09.366Z,4.75
2018-07-09T13:00:37.645Z,5.57
2018-07-09T13:03:06.043Z,4.73
2018-07-09T13:05:34.896Z,4.57
2018-07-09T13:08:03.165Z,5.40
2018-07-09T13:10:31.441Z,4.65
2018-07-09T13:13:03.525Z,3.92
2018-07-09T13:15:31.844Z,4.53
2018-07-09T13:18:01.094Z,4.72
2018-07-09T13:20:29.543Z,4.40
2018-07-09T13:22:57.845Z,4.28
2018-07-09T13:25:29.268Z,4.80
2018-07-09T13:27:57.692Z,4.33
2018-07-09T13:30:26.217Z,3.62
2018-07-09T13:32:54.705Z,3.70
2018-07-09T13:35:23.092Z,5.07
2018-07-09T13:37:51.442Z,4.40
2018-07-09T13:40:23.795Z,4.30
2018-07-09T13:42:52.142Z,3.93
2018-07-09T13:45:20.478Z,4.10
2018-07-09T13:47:49.174Z,3.90
2018-07-09T13:50:17.598Z,3.30
2018-07-09T13:52:46.484Z,3.60
2018-07-09T13:55:15.160Z,3.87
2018-07-09T13:57:43.663Z,4.10
2018-07-09T14:00:11.920Z,3.87
2018-07-09T14:02:40.866Z,4.87
2018-07-09T14:05:08.901Z,3.33
2018-07-09T14:07:37.364Z,3.30
2018-07-09T14:10:05.851Z,4.40
2018-07-09T14:12:34.229Z,3.10
2018-07-09T14:15:02.560Z,3.30
2018-07-09T14:17:30.896Z,4.17
2018-07-09T14:20:49.857Z,3.37
2018-07-09T14:23:18.912Z,3.23
2018-07-09T14:25:47.128Z,3.27
2018-07-09T14:28:18.482Z,3.13
2018-07-09T14:30:46.711Z,2.92
2018-07-09T14:33:15.061Z,2.70
2018-07-09T14:35:51.033Z,3.30
2018-07-09T14:38:19.245Z,2.70
2018-07-09T14:40:47.497Z,2.93
2018-07-09T14:43:15.850Z,2.97
2018-07-09T14:45:44.775Z,3.60
2018-07-09T14:48:13.030Z,3.50
2018-07-09T14:50:41.256Z,2.30
2018-07-09T14:53:10.104Z,2.83
2018-07-09T14:55:38.317Z,2.50
2018-07-09T14:58:06.550Z,3.00
2018-07-09T15:00:34.819Z,2.37
2018-07-09T15:03:03.057Z,2.23
2018-07-09T15:05:31.381Z,2.10
2018-07-09T15:07:59.595Z,1.97
2018-07-09T15:10:27.853Z,2.60
2018-07-09T15:12:58.914Z,2.05
2018-07-09T15:15:27.209Z,3.03
2018-07-09T15:17:55.453Z,3.30
2018-07-09T15:20:24.547Z,2.34
2018-07-09T15:22:52.836Z,2.87
2018-07-09T15:25:21.122Z,2.37
2018-07-09T15:27:53.796Z,2.30
2018-07-09T15:30:22.241Z,2.83
2018-07-09T15:32:51.372Z,2.60
2018-07-09T15:35:19.815Z,2.45
2018-07-09T15:37:48.117Z,2.50
2018-07-09T15:40:16.343Z,2.07
2018-07-09T15:42:48.284Z,1.98
2018-07-09T15:45:16.686Z,2.27
2018-07-09T15:47:45.512Z,1.90
2018-07-09T15:50:13.797Z,2.40
2018-07-09T15:52:42.380Z,1.77
2018-07-09T15:55:10.789Z,2.20
2018-07-09T15:57:39.124Z,2.03
2018-07-09T16:00:07.437Z,2.20
2018-07-09T16:02:35.723Z,1.72
2018-07-09T16:05:04.702Z,1.73
2018-07-09T16:07:33.042Z,1.73
2018-07-09T16:10:01.507Z,2.07
2018-07-09T16:12:33.613Z,2.00
2018-07-09T16:15:01.877Z,2.30
2018-07-09T16:17:30.156Z,2.50
2018-07-09T16:19:58.498Z,2.13
2018-07-09T16:22:26.815Z,1.50
2018-07-09T16:24:55.272Z,1.90
2018-07-09T16:27:23.601Z,2.12
2018-07-09T16:29:51.906Z,1.73
2018-07-09T16:32:20.352Z,1.32
2018-07-09T16:34:49.533Z,1.20
2018-07-09T16:37:17.814Z,1.67
2018-07-09T16:39:46.173Z,1.72
2018-07-09T16:42:14.526Z,1.50
2018-07-09T16:44:46.384Z,2.10
2018-07-09T16:47:15.208Z,1.37
2018-07-09T16:49:43.439Z,1.80
2018-07-09T16:52:11.717Z,1.60
2018-07-09T16:54:40.020Z,1.73
2018-07-09T16:57:08.371Z,1.73
2018-07-09T16:59:43.909Z,1.60
2018-07-09T17:02:12.163Z,1.53
2018-07-09T17:04:40.270Z,1.55
2018-07-09T17:07:08.546Z,1.43
2018-07-09T17:09:36.827Z,1.75
2018-07-09T17:12:05.171Z,1.50
2018-07-09T17:14:33.371Z,1.47
2018-07-09T17:17:01.601Z,1.40
2018-07-09T17:19:29.948Z,1.20
2018-07-09T17:21:58.313Z,1.22
2018-07-09T17:24:26.638Z,1.50
2018-07-09T17:26:54.975Z,1.70
2018-07-09T17:29:23.036Z,2.10
2018-07-09T17:31:51.764Z,1.30
2018-07-09T17:34:20.052Z,1.17
2018-07-09T17:36:49.726Z,1.57
2018-07-09T17:39:18.144Z,1.50
2018-07-09T17:41:46.787Z,1.70
2018-07-09T17:44:19.523Z,1.17
2018-07-09T17:46:47.872Z,2.00
2018-07-09T17:49:16.386Z,1.45
2018-07-09T17:51:44.661Z,1.62
2018-07-09T17:54:12.912Z,1.90
2018-07-09T17:56:41.274Z,1.40
2018-07-09T17:59:13.070Z,4.08
2018-07-09T18:01:41.354Z,2.10
2018-07-09T18:04:10.124Z,1.85
2018-07-09T18:06:38.466Z,2.27
2018-07-09T18:09:07.409Z,2.23
2018-07-09T18:11:36.065Z,2.00
2018-07-09T18:14:05.252Z,1.70
2018-07-09T18:16:33.545Z,1.85
2018-07-09T18:19:02.071Z,2.37
2018-07-09T18:21:30.323Z,1.67
2018-07-09T18:23:58.497Z,1.77
2018-07-09T18:26:26.825Z,1.70
2018-07-09T18:28:55.069Z,1.50
2018-07-09T18:31:23.297Z,1.73
2018-07-09T18:33:51.597Z,1.52
2018-07-09T18:36:19.868Z,1.23
2018-07-09T18:38:48.314Z,1.80
2018-07-09T18:41:16.650Z,1.60
2018-07-09T18:43:44.906Z,1.60
2018-07-09T18:46:14.513Z,1.42
2018-07-09T18:48:42.829Z,1.45
2018-07-09T18:51:11.020Z,1.50
2018-07-09T18:53:39.476Z,1.62
2018-07-09T18:56:08.639Z,1.57
2018-07-09T18:58:36.984Z,1.80
2018-07-09T19:01:08.174Z,1.80
2018-07-09T19:03:36.581Z,1.53
2018-07-09T19:07:14.309Z,1.90
2018-07-09T19:09:42.561Z,1.50
2018-07-09T19:12:10.786Z,1.63
2018-07-09T19:14:42.103Z,2.33
2018-07-09T19:17:49.620Z,2.00
2018-07-09T19:20:29.223Z,1.80
2018-07-09T19:22:56.496Z,1.95
2018-07-09T19:25:23.701Z,1.90
2018-07-09T19:27:50.920Z,1.65
2018-07-09T19:30:18.176Z,1.50
2018-07-09T19:32:45.552Z,1.55
2018-07-09T19:35:12.786Z,1.30
2018-07-09T19:37:40.418Z,2.07
2018-07-09T19:40:07.588Z,1.67
2018-07-09T19:42:35.152Z,2.20
2018-07-09T19:45:03.965Z,1.77
2018-07-09T19:47:35.321Z,1.83
2018-07-09T19:50:02.571Z,1.70
2018-07-09T19:52:29.797Z,2.17
2018-07-09T19:54:57.072Z,2.37
2018-07-09T19:57:24.363Z,1.70
2018-07-09T19:59:51.814Z,2.17
2018-07-09T20:02:19.835Z,2.45
2018-07-09T20:04:47.065Z,1.87
2018-07-09T20:07:14.300Z,1.90
2018-07-09T20:09:46.943Z,1.83
2018-07-09T20:12:20.354Z,1.75
2018-07-09T20:14:53.074Z,2.00
2018-07-09T20:17:28.676Z,4.17
2018-07-09T20:19:56.292Z,1.80
2018-07-09T20:22:23.992Z,1.60
2018-07-09T20:24:51.212Z,1.60
2018-07-09T20:27:18.461Z,2.30
2018-07-09T20:29:46.616Z,2.47
2018-07-09T20:32:18.334Z,2.37
2018-07-09T20:34:45.557Z,1.80
2018-07-09T20:37:12.809Z,1.90
2018-07-09T20:39:40.025Z,1.77
2018-07-09T20:42:07.253Z,1.97
2018-07-09T20:44:34.500Z,1.97
2018-07-09T20:47:01.713Z,1.60
2018-07-09T20:49:31.841Z,2.40
2018-07-09T20:51:59.089Z,2.23
2018-07-09T20:54:26.304Z,2.17
2018-07-09T20:56:53.632Z,2.35
2018-07-09T20:59:20.925Z,2.40
2018-07-09T21:01:48.602Z,2.12
2018-07-09T21:04:26.534Z,2.30
2018-07-09T21:06:54.808Z,2.00
2018-07-09T21:09:22.052Z,2.20
2018-07-09T21:11:50.199Z,1.90
2018-07-09T21:14:17.463Z,2.10
2018-07-09T21:16:44.716Z,2.10
2018-07-09T21:19:11.936Z,1.90
2018-07-09T21:21:39.640Z,2.27
2018-07-09T21:24:06.847Z,2.10
2018-07-09T21:26:34.431Z,2.60
2018-07-09T21:29:01.698Z,2.40
2018-07-09T21:31:28.955Z,2.50
2018-07-09T21:33:59.537Z,2.17
2018-07-09T21:36:26.767Z,2.80
2018-07-09T21:38:53.968Z,2.40
2018-07-09T21:41:21.301Z,2.20
2018-07-09T21:43:48.502Z,2.60
2018-07-09T21:46:15.787Z,2.60
2018-07-09T21:48:46.004Z,2.30
2018-07-09T21:51:13.207Z,2.77
2018-07-09T21:53:40.433Z,1.85
2018-07-09T21:56:07.704Z,2.10
2018-07-09T21:58:35.172Z,2.10
2018-07-09T22:01:02.475Z,2.47
2018-07-09T22:03:32.555Z,2.15
2018-07-09T22:05:59.794Z,1.70
2018-07-09T22:08:27.029Z,3.40
2018-07-09T22:10:54.247Z,2.17
2018-07-09T22:13:21.460Z,2.30
2018-07-09T22:15:48.702Z,2.20
2018-07-09T22:18:15.947Z,2.30
2018-07-09T22:20:47.209Z,2.30
2018-07-09T22:23:15.379Z,2.02
2018-07-09T22:25:42.621Z,2.00
2018-07-09T22:28:09.877Z,2.10
2018-07-09T22:30:38.097Z,2.43
2018-07-09T22:33:06.325Z,2.07
2018-07-09T22:35:39.208Z,2.92
2018-07-09T22:38:07.449Z,2.00
2018-07-09T22:40:35.715Z,2.05
2018-07-09T22:43:15.312Z,2.77
2018-07-09T22:45:43.551Z,2.70
2018-07-09T22:48:12.688Z,1.93
2018-07-09T22:50:45.289Z,2.00
2018-07-09T22:53:13.529Z,2.43
2018-07-09T22:55:53.091Z,2.53
2018-07-09T22:58:21.293Z,2.27
2018-07-09T23:00:49.578Z,2.87
2018-07-09T23:03:17.768Z,2.27
2018-07-09T23:05:56.693Z,2.60
2018-07-09T23:08:24.920Z,3.23
2018-07-09T23:13:24.564Z,2.50
2018-07-09T23:16:04.185Z,2.25
2018-07-09T23:18:59.427Z,2.60
2018-07-09T23:21:40.504Z,2.63
2018-07-09T23:24:08.702Z,2.40
2018-07-09T23:26:35.943Z,2.40
2018-07-09T23:29:03.151Z,2.47
2018-07-09T23:31:30.392Z,2.73
2018-07-09T23:33:57.604Z,2.60
2018-07-09T23:36:24.839Z,2.23
2018-07-09T23:38:52.603Z,2.72
2018-07-09T23:41:19.864Z,2.13
2018-07-09T23:43:47.122Z,2.37
2018-07-09T23:46:14.708Z,3.00
2018-07-09T23:48:41.981Z,3.08
2018-07-09T23:51:09.265Z,2.60
2018-07-09T23:53:36.439Z,2.95
2018-07-09T23:58:28.977Z,2.63
